createdAt,value
2023-03-03T00:00:25.962Z,-1.10
2023-03-03T00:03:17.392Z,-1.12
2023-03-03T00:05:45.244Z,-1.14
2023-03-03T00:08:13.075Z,-1.15
2023-03-03T00:10:40.576Z,-1.17
2023-03-03T00:13:14.679Z,-1.18
2023-03-03T00:15:42.283Z,-1.19
2023-03-03T00:18:23.069Z,-1.18
2023-03-03T00:20:57.168Z,-1.19
2023-03-03T00:23:36.868Z,-1.21
2023-03-03T00:26:15.405Z,-1.23
2023-03-03T00:28:48.585Z,-1.24
2023-03-03T00:31:20.546Z,-1.25
2023-03-03T00:33:54.949Z,-1.25
2023-03-03T00:36:39.692Z,-1.24
2023-03-03T00:39:18.963Z,-1.24
2023-03-03T00:42:14.782Z,-1.25
2023-03-03T00:44:47.399Z,-1.26
2023-03-03T00:47:33.468Z,-1.26
2023-03-03T00:50:29.891Z,-1.27
2023-03-03T00:53:12.510Z,-1.27
2023-03-03T00:55:40.803Z,-1.28
2023-03-03T00:58:09.030Z,-1.30
2023-03-03T01:00:41.242Z,-1.32
2023-03-03T01:03:18.415Z,-1.33
2023-03-03T01:05:45.794Z,-1.33
2023-03-03T01:08:13.744Z,-1.33
2023-03-03T01:11:06.028Z,-1.33
2023-03-03T01:13:37.823Z,-1.34
2023-03-03T01:16:07.624Z,-1.36
2023-03-03T01:18:38.045Z,-1.36
2023-03-03T01:21:05.842Z,-1.37
2023-03-03T01:23:36.371Z,-1.35
2023-03-03T01:26:08.256Z,-1.35
2023-03-03T01:28:39.478Z,-1.35
2023-03-03T01:31:27.642Z,-1.35
2023-03-03T01:33:58.047Z,-1.36
2023-03-03T01:36:29.290Z,-1.38
2023-03-03T01:38:59.923Z,-1.39
2023-03-03T01:41:32.440Z,-1.41
2023-03-03T01:44:13.369Z,-1.43
2023-03-03T01:46:56.495Z,-1.45
2023-03-03T01:49:28.873Z,-1.48
2023-03-03T01:51:59.723Z,-1.48
2023-03-03T01:54:44.266Z,-1.48
2023-03-03T01:57:23.029Z,-1.49
2023-03-03T01:59:55.018Z,-1.49
2023-03-03T02:02:26.822Z,-1.51
2023-03-03T02:04:57.545Z,-1.52
2023-03-03T02:07:27.456Z,-1.52
2023-03-03T02:10:13.225Z,-1.53
2023-03-03T02:12:56.573Z,-1.53
2023-03-03T02:15:43.833Z,-1.53
2023-03-03T02:18:23.041Z,-1.53
2023-03-03T02:21:14.238Z,-1.53
2023-03-03T02:24:07.937Z,-1.52
2023-03-03T02:26:50.026Z,-1.53
2023-03-03T02:29:25.191Z,-1.53
2023-03-03T02:32:03.982Z,-1.52
2023-03-03T02:34:44.774Z,-1.52
2023-03-03T02:37:12.210Z,-1.52
2023-03-03T02:39:39.572Z,-1.53
2023-03-03T02:42:14.422Z,-1.52
2023-03-03T02:44:45.232Z,-1.53
2023-03-03T02:47:14.886Z,-1.57
2023-03-03T02:49:45.680Z,-1.58
2023-03-03T02:52:15.056Z,-1.57
2023-03-03T02:54:44.583Z,-1.57
2023-03-03T02:57:12.451Z,-1.56
2023-03-03T02:59:42.175Z,-1.57
2023-03-03T03:02:12.727Z,-1.58
2023-03-03T03:04:50.900Z,-1.60
2023-03-03T03:07:23.386Z,-1.62
2023-03-03T03:09:51.123Z,-1.64
2023-03-03T03:12:29.856Z,-1.66
2023-03-03T03:15:01.307Z,-1.68
2023-03-03T03:17:49.153Z,-1.69
2023-03-03T03:20:37.473Z,-1.72
2023-03-03T03:23:05.126Z,-1.74
2023-03-03T03:25:52.389Z,-1.76
2023-03-03T03:28:24.701Z,-1.79
2023-03-03T03:31:01.617Z,-1.82
2023-03-03T03:33:33.997Z,-1.83
2023-03-03T03:36:21.319Z,-1.85
2023-03-03T03:38:52.707Z,-1.88
2023-03-03T03:41:40.092Z,-1.90
2023-03-03T03:44:28.278Z,-1.93
2023-03-03T03:47:07.002Z,-1.94
2023-03-03T03:49:54.535Z,-1.95
2023-03-03T03:52:32.028Z,-1.98
2023-03-03T03:55:03.590Z,-1.99
2023-03-03T03:57:35.203Z,-2.00
2023-03-03T04:00:03.286Z,-2.01
2023-03-03T04:02:41.056Z,-2.02
2023-03-03T04:05:12.813Z,-2.04
2023-03-03T04:07:59.777Z,-2.04
2023-03-03T04:10:47.371Z,-2.04
2023-03-03T04:13:20.820Z,-2.05
2023-03-03T04:15:50.252Z,-2.04
2023-03-03T04:18:20.807Z,-2.04
2023-03-03T04:20:58.708Z,-2.05
2023-03-03T04:23:26.574Z,-2.05
2023-03-03T04:25:53.829Z,-2.06
2023-03-03T04:28:22.142Z,-2.07
2023-03-03T04:30:50.213Z,-2.08
2023-03-03T04:33:17.835Z,-2.10
2023-03-03T04:35:46.879Z,-2.11
2023-03-03T04:38:17.472Z,-2.12
2023-03-03T04:40:46.456Z,-2.14
2023-03-03T04:43:14.461Z,-2.17
2023-03-03T04:45:41.984Z,-2.18
2023-03-03T04:48:10.671Z,-2.18
2023-03-03T04:50:38.489Z,-2.20
2023-03-03T04:53:05.911Z,-2.20
2023-03-03T04:55:33.558Z,-2.21
2023-03-03T04:58:03.631Z,-2.25
2023-03-03T05:00:31.440Z,-2.28
2023-03-03T05:02:59.715Z,-2.29
2023-03-03T05:05:39.059Z,-2.31
2023-03-03T05:08:09.681Z,-2.34
2023-03-03T05:10:40.108Z,-2.36
2023-03-03T05:13:08.176Z,-2.38
2023-03-03T05:15:35.631Z,-2.38
2023-03-03T05:18:02.952Z,-2.38
2023-03-03T05:20:43.040Z,-2.39
2023-03-03T05:23:10.600Z,-2.38
2023-03-03T05:25:38.361Z,-2.37
2023-03-03T05:28:05.922Z,-2.33
2023-03-03T05:30:35.734Z,-2.30
2023-03-03T05:33:06.270Z,-2.27
2023-03-03T05:35:58.446Z,-2.23
2023-03-03T05:38:26.476Z,-2.20
2023-03-03T05:40:57.008Z,-2.17
2023-03-03T05:43:24.502Z,-2.12
2023-03-03T05:46:02.978Z,-2.07
2023-03-03T05:48:33.917Z,-2.06
2023-03-03T05:51:04.388Z,-2.03
2023-03-03T05:53:35.696Z,-2.01
2023-03-03T05:56:03.574Z,-1.98
2023-03-03T05:58:38.711Z,-1.98
2023-03-03T06:01:27.106Z,-1.98
2023-03-03T06:03:54.847Z,-1.96
2023-03-03T06:06:24.850Z,-1.95
2023-03-03T06:08:55.536Z,-1.97
2023-03-03T06:11:33.668Z,-1.94
2023-03-03T06:14:03.420Z,-1.93
2023-03-03T06:16:33.392Z,-1.94
2023-03-03T06:19:04.105Z,-1.91
2023-03-03T06:21:33.599Z,-1.88
2023-03-03T06:24:03.657Z,-1.89
2023-03-03T06:26:34.091Z,-1.92
2023-03-03T06:29:02.363Z,-1.93
2023-03-03T06:31:29.883Z,-1.93
2023-03-03T06:33:57.374Z,-1.92
2023-03-03T06:36:26.671Z,-1.90
2023-03-03T06:38:54.146Z,-1.87
2023-03-03T06:41:32.687Z,-1.84
2023-03-03T06:44:00.517Z,-1.86
2023-03-03T06:46:28.647Z,-1.87
2023-03-03T06:48:56.249Z,-1.87
2023-03-03T06:51:28.515Z,-1.88
2023-03-03T06:53:57.767Z,-1.88
2023-03-03T06:56:25.688Z,-1.86
2023-03-03T06:58:54.687Z,-1.85
2023-03-03T07:01:24.462Z,-1.82
2023-03-03T07:03:56.053Z,-1.76
2023-03-03T07:06:28.281Z,-1.73
2023-03-03T07:08:57.810Z,-1.67
2023-03-03T07:11:26.289Z,-1.59
2023-03-03T07:13:55.611Z,-1.54
2023-03-03T07:16:28.484Z,-1.51
2023-03-03T07:18:57.034Z,-1.51
2023-03-03T07:21:32.389Z,-1.49
2023-03-03T07:24:01.525Z,-1.48
2023-03-03T07:26:33.382Z,-1.49
2023-03-03T07:29:02.724Z,-1.46
2023-03-03T07:31:35.191Z,-1.46
2023-03-03T07:34:06.130Z,-1.46
2023-03-03T07:36:37.048Z,-1.42
2023-03-03T07:39:26.408Z,-1.36
2023-03-03T07:41:54.583Z,-1.32
2023-03-03T07:44:27.784Z,-1.28
2023-03-03T07:46:55.139Z,-1.26
2023-03-03T07:49:31.518Z,-1.22
2023-03-03T07:52:00.807Z,-1.17
2023-03-03T07:54:36.758Z,-1.13
2023-03-03T07:57:16.992Z,-1.09
2023-03-03T07:59:49.372Z,-1.06
2023-03-03T08:02:34.592Z,-1.04
2023-03-03T08:05:05.007Z,-0.99
2023-03-03T08:07:36.954Z,-0.93
2023-03-03T08:10:24.975Z,-0.85
2023-03-03T08:12:52.449Z,-0.79
2023-03-03T08:15:32.575Z,-0.74
2023-03-03T08:18:10.205Z,-0.67
2023-03-03T08:20:48.059Z,-0.59
2023-03-03T08:23:16.834Z,-0.54
2023-03-03T08:25:44.362Z,-0.52
2023-03-03T08:28:21.976Z,-0.51
2023-03-03T08:30:50.257Z,-0.51
2023-03-03T08:33:18.487Z,-0.50
2023-03-03T08:36:09.698Z,-0.49
2023-03-03T08:38:41.055Z,-0.46
2023-03-03T08:41:08.619Z,-0.42
2023-03-03T08:43:39.047Z,-0.38
2023-03-03T08:46:10.733Z,-0.35
2023-03-03T08:48:37.936Z,-0.37
2023-03-03T08:51:06.003Z,-0.35
2023-03-03T08:53:34.454Z,-0.35
2023-03-03T08:56:05.857Z,-0.34
2023-03-03T08:58:35.917Z,-0.30
2023-03-03T09:01:04.427Z,-0.27
2023-03-03T09:03:32.511Z,-0.25
2023-03-03T09:05:59.907Z,-0.25
2023-03-03T09:08:27.582Z,-0.24
2023-03-03T09:10:54.881Z,-0.19
2023-03-03T09:13:22.767Z,-0.14
2023-03-03T09:15:51.060Z,-0.09
2023-03-03T09:18:22.581Z,-0.06
2023-03-03T09:20:52.301Z,-0.01
2023-03-03T09:23:37.891Z,0.05
2023-03-03T09:26:24.583Z,0.08
2023-03-03T09:28:54.602Z,0.10
2023-03-03T09:31:28.029Z,0.12
2023-03-03T09:33:58.037Z,0.14
2023-03-03T09:36:28.547Z,0.17
2023-03-03T09:38:57.232Z,0.20
2023-03-03T09:41:45.169Z,0.24
2023-03-03T09:44:28.444Z,0.24
2023-03-03T09:47:15.211Z,0.27
2023-03-03T09:49:51.383Z,0.28
2023-03-03T09:52:40.043Z,0.30
2023-03-03T09:55:23.275Z,0.27
2023-03-03T09:58:11.204Z,0.24
2023-03-03T10:00:48.167Z,0.19
2023-03-03T10:03:52.630Z,0.17
2023-03-03T10:06:37.355Z,0.15
2023-03-03T10:09:56.139Z,0.11
2023-03-03T10:12:30.234Z,0.08
2023-03-03T10:15:18.010Z,0.09
2023-03-03T10:17:55.089Z,0.10
2023-03-03T10:20:51.895Z,0.11
2023-03-03T10:23:25.336Z,0.13
2023-03-03T10:26:07.336Z,0.11
2023-03-03T10:28:54.980Z,0.08
2023-03-03T10:31:32.827Z,0.08
2023-03-03T10:34:08.945Z,0.10
2023-03-03T10:36:50.908Z,0.11
2023-03-03T10:39:34.002Z,0.11
2023-03-03T10:42:24.702Z,0.08
2023-03-03T10:45:12.743Z,0.08
2023-03-03T10:47:56.174Z,0.05
2023-03-03T10:50:29.423Z,0.01
2023-03-03T10:53:04.711Z,-0.06
2023-03-03T10:55:50.347Z,-0.09
2023-03-03T10:58:39.050Z,-0.07
2023-03-03T11:01:19.535Z,-0.07
2023-03-03T11:04:09.578Z,-0.05
2023-03-03T11:06:47.262Z,-0.04
2023-03-03T11:09:26.822Z,-0.03
2023-03-03T11:12:00.821Z,-0.01
2023-03-03T11:14:35.168Z,-0.02
2023-03-03T11:17:12.626Z,0.00
2023-03-03T11:19:53.648Z,0.01
2023-03-03T11:22:35.052Z,-0.04
2023-03-03T11:25:14.146Z,-0.07
2023-03-03T11:28:07.820Z,-0.08
2023-03-03T11:30:59.196Z,-0.13
2023-03-03T11:33:35.448Z,-0.17
2023-03-03T11:36:18.028Z,-0.18
2023-03-03T11:39:00.385Z,-0.20
2023-03-03T11:41:41.301Z,-0.21
2023-03-03T11:44:18.689Z,-0.21
2023-03-03T11:46:53.214Z,-0.23
2023-03-03T11:49:26.568Z,-0.26
2023-03-03T11:52:04.407Z,-0.26
2023-03-03T11:54:45.692Z,-0.25
2023-03-03T11:57:22.792Z,-0.26
2023-03-03T12:00:01.611Z,-0.29
2023-03-03T12:02:55.792Z,-0.32
2023-03-03T12:05:36.196Z,-0.31
2023-03-03T12:08:17.442Z,-0.29
2023-03-03T12:10:53.172Z,-0.30
2023-03-03T12:13:30.365Z,-0.30
2023-03-03T12:16:08.901Z,-0.33
2023-03-03T12:18:58.721Z,-0.33
2023-03-03T12:21:40.941Z,-0.35
2023-03-03T12:24:31.457Z,-0.39
2023-03-03T12:27:15.823Z,-0.41
2023-03-03T12:29:51.529Z,-0.40
2023-03-03T12:32:29.391Z,-0.38
2023-03-03T12:35:05.977Z,-0.36
2023-03-03T12:37:43.639Z,-0.34
2023-03-03T12:40:18.465Z,-0.32
2023-03-03T12:43:18.692Z,-0.33
2023-03-03T12:45:56.898Z,-0.34
2023-03-03T12:48:29.299Z,-0.37
2023-03-03T12:51:10.608Z,-0.40
2023-03-03T12:54:02.076Z,-0.40
2023-03-03T12:56:41.169Z,-0.37
2023-03-03T12:59:18.346Z,-0.34
2023-03-03T13:02:01.822Z,-0.33
2023-03-03T13:04:41.504Z,-0.30
2023-03-03T13:07:22.127Z,-0.28
2023-03-03T13:10:04.545Z,-0.28
2023-03-03T13:12:36.917Z,-0.26
2023-03-03T13:15:16.109Z,-0.26
2023-03-03T13:17:54.459Z,-0.29
2023-03-03T13:20:33.408Z,-0.30
2023-03-03T13:23:09.668Z,-0.31
2023-03-03T13:25:52.926Z,-0.33
2023-03-03T13:28:30.065Z,-0.36
2023-03-03T13:31:06.876Z,-0.40
2023-03-03T13:33:38.961Z,-0.41
2023-03-03T13:36:13.751Z,-0.42
2023-03-03T13:38:47.854Z,-0.45
2023-03-03T13:41:23.431Z,-0.46
2023-03-03T13:44:18.322Z,-0.46
2023-03-03T13:46:58.448Z,-0.45
2023-03-03T13:49:54.486Z,-0.47
2023-03-03T13:52:28.794Z,-0.47
2023-03-03T13:55:15.503Z,-0.46
2023-03-03T13:58:20.249Z,-0.46
2023-03-03T14:01:02.879Z,-0.48
2023-03-03T14:03:49.606Z,-0.47
2023-03-03T14:06:21.320Z,-0.47
2023-03-03T14:09:00.962Z,-0.47
2023-03-03T14:11:37.637Z,-0.45
2023-03-03T14:14:08.888Z,-0.44
2023-03-03T14:16:50.703Z,-0.45
2023-03-03T14:19:25.333Z,-0.44
2023-03-03T14:22:06.560Z,-0.45
2023-03-03T14:24:36.519Z,-0.46
2023-03-03T14:27:15.533Z,-0.44
2023-03-03T14:29:42.879Z,-0.43
2023-03-03T14:32:43.155Z,-0.42
2023-03-03T14:35:20.532Z,-0.43
2023-03-03T14:37:48.983Z,-0.42
2023-03-03T14:40:23.623Z,-0.42
2023-03-03T14:42:56.089Z,-0.43
2023-03-03T14:45:32.763Z,-0.45
2023-03-03T14:47:58.725Z,-0.46
2023-03-03T14:50:35.809Z,-0.46
2023-03-03T14:53:15.955Z,-0.46
2023-03-03T14:55:44.913Z,-0.47
2023-03-03T14:58:33.029Z,-0.46
2023-03-03T15:01:14.636Z,-0.45
2023-03-03T15:03:52.712Z,-0.45
2023-03-03T15:06:45.062Z,-0.45
2023-03-03T15:09:34.138Z,-0.46
2023-03-03T15:12:02.428Z,-0.48
2023-03-03T15:14:39.705Z,-0.49
2023-03-03T15:17:27.675Z,-0.50
2023-03-03T15:20:25.627Z,-0.52
2023-03-03T15:23:41.275Z,-0.53
2023-03-03T15:26:16.188Z,-0.51
2023-03-03T15:29:01.778Z,-0.49
2023-03-03T15:31:40.099Z,-0.49
2023-03-03T15:34:26.129Z,-0.49
2023-03-03T15:36:59.688Z,-0.48
2023-03-03T15:39:35.026Z,-0.47
2023-03-03T15:42:07.434Z,-0.45
2023-03-03T15:44:47.305Z,-0.44
2023-03-03T15:47:32.158Z,-0.45
2023-03-03T15:50:20.812Z,-0.46
2023-03-03T15:52:57.953Z,-0.48
2023-03-03T15:55:38.773Z,-0.52
2023-03-03T15:58:22.813Z,-0.55
2023-03-03T16:01:11.115Z,-0.58
2023-03-03T16:03:46.642Z,-0.62
2023-03-03T16:06:17.816Z,-0.66
2023-03-03T16:08:54.250Z,-0.70
2023-03-03T16:11:30.534Z,-0.73
2023-03-03T16:14:12.161Z,-0.75
2023-03-03T16:16:49.356Z,-0.76
2023-03-03T16:19:27.401Z,-0.79
2023-03-03T16:22:12.684Z,-0.79
2023-03-03T16:24:52.521Z,-0.78
2023-03-03T16:27:26.390Z,-0.77
2023-03-03T16:30:12.248Z,-0.73
2023-03-03T16:32:45.517Z,-0.72
2023-03-03T16:35:24.960Z,-0.71
2023-03-03T16:38:05.180Z,-0.70
2023-03-03T16:40:38.623Z,-0.69
2023-03-03T16:43:23.902Z,-0.69
2023-03-03T16:45:51.393Z,-0.69
2023-03-03T16:48:27.936Z,-0.70
2023-03-03T16:51:01.477Z,-0.72
2023-03-03T16:53:44.603Z,-0.74
2023-03-03T16:56:15.612Z,-0.74
2023-03-03T16:59:33.893Z,-0.77
2023-03-03T17:02:13.843Z,-0.80
2023-03-03T17:04:45.560Z,-0.79
2023-03-03T17:07:24.019Z,-0.81
2023-03-03T17:10:15.632Z,-0.84
2023-03-03T17:13:12.893Z,-0.88
2023-03-03T17:16:01.983Z,-0.92
2023-03-03T17:18:41.594Z,-0.93
2023-03-03T17:21:16.061Z,-0.94
2023-03-03T17:24:17.169Z,-0.97
2023-03-03T17:26:53.264Z,-0.99
2023-03-03T17:29:35.905Z,-1.00
2023-03-03T17:32:16.771Z,-1.01
2023-03-03T17:34:58.336Z,-1.01
2023-03-03T17:37:36.378Z,-1.01
2023-03-03T17:40:37.966Z,-1.00
2023-03-03T17:43:12.833Z,-1.01
2023-03-03T17:45:43.866Z,-1.00
2023-03-03T17:48:50.835Z,-0.98
2023-03-03T17:51:37.637Z,-1.00
2023-03-03T17:54:38.925Z,-1.02
2023-03-03T17:57:18.984Z,-1.03
2023-03-03T18:00:30.941Z,-1.03
2023-03-03T18:03:29.843Z,-1.01
2023-03-03T18:06:22.573Z,-1.01
2023-03-03T18:09:15.793Z,-1.03
2023-03-03T18:11:54.590Z,-1.02
2023-03-03T18:14:48.037Z,-1.03
2023-03-03T18:17:40.171Z,-1.05
2023-03-03T18:20:45.215Z,-1.07
2023-03-03T18:23:35.571Z,-1.08
2023-03-03T18:26:26.983Z,-1.08
2023-03-03T18:29:06.880Z,-1.10
2023-03-03T18:32:03.226Z,-1.08
2023-03-03T18:34:41.720Z,-1.06
2023-03-03T18:37:33.689Z,-1.06
2023-03-03T18:40:49.759Z,-1.08
2023-03-03T18:43:50.650Z,-1.09
2023-03-03T18:46:55.263Z,-1.10
2023-03-03T18:49:55.797Z,-1.10
2023-03-03T18:52:27.530Z,-1.07
2023-03-03T18:55:30.210Z,-1.06
2023-03-03T18:58:32.682Z,-1.07
2023-03-03T19:01:13.286Z,-1.07
2023-03-03T19:04:04.769Z,-1.06
2023-03-03T19:07:08.154Z,-1.06
2023-03-03T19:09:52.732Z,-1.05
2023-03-03T19:12:40.467Z,-1.02
2023-03-03T19:15:33.926Z,-1.03
2023-03-03T19:18:02.750Z,-1.01
2023-03-03T19:20:40.878Z,-1.01
2023-03-03T19:23:13.476Z,-1.01
2023-03-03T19:25:41.169Z,-1.00
2023-03-03T19:28:30.727Z,-0.99
2023-03-03T19:31:02.958Z,-0.99
2023-03-03T19:33:41.879Z,-0.99
2023-03-03T19:36:22.700Z,-1.00
2023-03-03T19:39:19.079Z,-0.97
2023-03-03T19:42:02.800Z,-0.96
2023-03-03T19:44:59.031Z,-0.96
2023-03-03T19:47:36.803Z,-0.97
2023-03-03T19:50:18.674Z,-0.97
2023-03-03T19:52:51.547Z,-0.98
2023-03-03T19:55:36.105Z,-0.98
2023-03-03T19:58:18.592Z,-0.98
2023-03-03T20:00:48.808Z,-0.96
2023-03-03T20:03:45.759Z,-0.95
2023-03-03T20:06:27.941Z,-0.94
2023-03-03T20:09:03.417Z,-0.92
2023-03-03T20:11:48.446Z,-0.91
2023-03-03T20:14:33.101Z,-0.90
2023-03-03T20:17:22.060Z,-0.89
2023-03-03T20:19:57.097Z,-0.88
2023-03-03T20:22:34.649Z,-0.87
2023-03-03T20:25:11.570Z,-0.86
2023-03-03T20:27:47.054Z,-0.86
2023-03-03T20:30:55.529Z,-0.85
2023-03-03T20:33:37.998Z,-0.84
2023-03-03T20:36:16.505Z,-0.83
2023-03-03T20:38:53.241Z,-0.84
2023-03-03T20:41:24.392Z,-0.83
2023-03-03T20:44:04.543Z,-0.81
2023-03-03T20:46:42.469Z,-0.79
2023-03-03T20:49:30.279Z,-0.76
2023-03-03T20:52:02.596Z,-0.74
2023-03-03T20:54:44.144Z,-0.74
2023-03-03T20:57:20.703Z,-0.72
2023-03-03T20:59:54.461Z,-0.70
2023-03-03T21:02:29.596Z,-0.70
2023-03-03T21:05:15.450Z,-0.69
2023-03-03T21:07:53.953Z,-0.67
2023-03-03T21:10:24.671Z,-0.67
2023-03-03T21:12:52.654Z,-0.68
2023-03-03T21:15:31.890Z,-0.67
2023-03-03T21:18:00.159Z,-0.66
2023-03-03T21:20:31.687Z,-0.65
2023-03-03T21:23:00.551Z,-0.64
2023-03-03T21:25:53.326Z,-0.64
2023-03-03T21:28:26.990Z,-0.63
2023-03-03T21:31:13.875Z,-0.63
2023-03-03T21:33:47.482Z,-0.64
2023-03-03T21:36:16.687Z,-0.64
2023-03-03T21:38:45.455Z,-0.66
2023-03-03T21:41:14.142Z,-0.67
2023-03-03T21:43:44.169Z,-0.65
2023-03-03T21:46:12.839Z,-0.65
2023-03-03T21:48:43.308Z,-0.63
2023-03-03T21:51:11.241Z,-0.62
2023-03-03T21:53:38.393Z,-0.62
2023-03-03T21:56:09.456Z,-0.62
2023-03-03T21:58:38.119Z,-0.62
2023-03-03T22:01:05.739Z,-0.62
2023-03-03T22:03:33.450Z,-0.60
2023-03-03T22:06:00.916Z,-0.59
2023-03-03T22:08:28.668Z,-0.59
2023-03-03T22:10:57.255Z,-0.56
2023-03-03T22:13:30.154Z,-0.56
2023-03-03T22:16:08.167Z,-0.55
2023-03-03T22:18:35.396Z,-0.55
2023-03-03T22:21:02.546Z,-0.54
2023-03-03T22:23:32.606Z,-0.54
2023-03-03T22:25:59.925Z,-0.54
2023-03-03T22:28:29.332Z,-0.54
2023-03-03T22:30:57.365Z,-0.53
2023-03-03T22:33:30.404Z,-0.53
2023-03-03T22:35:57.930Z,-0.54
2023-03-03T22:38:28.725Z,-0.54
2023-03-03T22:40:56.150Z,-0.52
2023-03-03T22:43:23.928Z,-0.52
2023-03-03T22:45:51.153Z,-0.52
2023-03-03T22:48:18.822Z,-0.51
2023-03-03T22:50:47.707Z,-0.50
2023-03-03T22:53:15.138Z,-0.51
2023-03-03T22:55:42.434Z,-0.51
2023-03-03T22:58:10.696Z,-0.51
2023-03-03T23:00:39.489Z,-0.52
2023-03-03T23:03:07.013Z,-0.51
2023-03-03T23:05:36.090Z,-0.51
2023-03-03T23:08:03.592Z,-0.51
2023-03-03T23:10:30.845Z,-0.52
2023-03-03T23:12:58.197Z,-0.53
2023-03-03T23:15:25.255Z,-0.53
2023-03-03T23:17:52.603Z,-0.53
2023-03-03T23:20:22.206Z,-0.51
2023-03-03T23:22:49.457Z,-0.51
2023-03-03T23:25:17.655Z,-0.50
2023-03-03T23:27:45.557Z,-0.50
2023-03-03T23:30:16.750Z,-0.51
2023-03-03T23:32:43.832Z,-0.50
2023-03-03T23:35:11.975Z,-0.50
2023-03-03T23:37:39.367Z,-0.50
2023-03-03T23:40:09.676Z,-0.49
2023-03-03T23:42:37.931Z,-0.49
2023-03-03T23:45:05.729Z,-0.48
2023-03-03T23:47:32.860Z,-0.48
2023-03-03T23:50:00.405Z,-0.47
2023-03-03T23:52:27.553Z,-0.46
2023-03-03T23:54:54.916Z,-0.46
2023-03-03T23:57:22.396Z,-0.45
